createdAt,value
2023-03-29T00:07:59.297Z,3.10
2023-03-29T00:17:58.750Z,2.70
2023-03-29T00:27:58.410Z,2.90
2023-03-29T00:37:57.976Z,3.20
2023-03-29T00:47:57.704Z,3.10
2023-03-29T00:57:52.491Z,3.00
2023-03-29T01:07:51.620Z,2.80
2023-03-29T01:17:51.285Z,3.00
2023-03-29T01:27:50.875Z,3.00
2023-03-29T01:37:50.538Z,2.80
2023-03-29T01:47:50.197Z,3.00
2023-03-29T01:57:49.977Z,2.90
2023-03-29T02:07:49.447Z,3.20
2023-03-29T02:17:49.704Z,3.20
2023-03-29T02:27:48.702Z,3.00
2023-03-29T02:37:48.568Z,2.90
2023-03-29T02:47:47.996Z,2.90
2023-03-29T02:57:47.628Z,2.70
2023-03-29T03:07:47.420Z,2.70
2023-03-29T03:17:47.097Z,2.70
2023-03-29T03:27:41.849Z,3.00
2023-03-29T03:37:41.228Z,2.80
2023-03-29T03:47:40.518Z,2.70
2023-03-29T03:57:40.311Z,2.80
2023-03-29T04:07:39.748Z,3.00
2023-03-29T04:17:39.717Z,2.90
2023-03-29T04:27:39.026Z,2.60
2023-03-29T04:37:38.817Z,2.90
2023-03-29T04:47:38.383Z,3.30
2023-03-29T04:57:39.927Z,3.00
2023-03-29T05:07:37.617Z,3.40
2023-03-29T05:17:37.562Z,3.30
2023-03-29T05:27:36.825Z,3.30
2023-03-29T05:37:36.487Z,3.30
2023-03-29T05:47:36.397Z,3.30
2023-03-29T05:57:35.771Z,3.30
2023-03-29T06:07:30.015Z,3.50
2023-03-29T06:17:30.055Z,3.50
2023-03-29T06:27:29.450Z,3.50
2023-03-29T06:37:28.956Z,3.40
2023-03-29T06:47:30.407Z,3.10
2023-03-29T06:57:28.254Z,3.20
2023-03-29T07:07:27.970Z,3.30
2023-03-29T07:17:27.623Z,3.50
2023-03-29T07:27:27.048Z,3.10
2023-03-29T07:37:27.483Z,3.30
2023-03-29T07:47:26.343Z,3.60
2023-03-29T07:57:25.978Z,3.40
2023-03-29T08:07:25.565Z,3.80
2023-03-29T08:17:26.131Z,3.70
2023-03-29T08:27:25.045Z,3.40
2023-03-29T08:37:26.596Z,3.30
2023-03-29T08:47:24.152Z,3.30
2023-03-29T08:57:23.819Z,3.20
2023-03-29T09:07:24.650Z,3.50
2023-03-29T09:17:23.052Z,3.10
2023-03-29T09:27:22.807Z,3.40
2023-03-29T09:37:22.460Z,3.70
2023-03-29T09:47:21.881Z,3.40
2023-03-29T09:57:21.806Z,3.50
2023-03-29T10:07:22.379Z,3.60
2023-03-29T10:17:20.823Z,3.50
2023-03-29T10:27:17.895Z,3.60
2023-03-29T10:37:15.509Z,3.40
2023-03-29T10:47:14.708Z,3.50
2023-03-29T10:57:14.856Z,3.90
2023-03-29T11:07:14.608Z,3.70
2023-03-29T11:17:13.622Z,3.70
2023-03-29T11:27:13.292Z,3.60
2023-03-29T11:37:12.915Z,3.90
2023-03-29T11:47:12.736Z,3.70
2023-03-29T11:57:12.534Z,4.10
2023-03-29T12:07:12.276Z,4.10
2023-03-29T12:17:11.915Z,4.20
2023-03-29T12:27:11.930Z,4.40
2023-03-29T12:37:11.526Z,4.30
2023-03-29T12:47:11.601Z,4.50
2023-03-29T12:57:11.320Z,3.90
2023-03-29T13:07:11.171Z,4.20
2023-03-29T13:17:18.032Z,4.10
2023-03-29T13:27:11.108Z,4.20
2023-03-29T13:37:11.197Z,3.60
2023-03-29T13:47:12.206Z,3.80
2023-03-29T13:57:11.100Z,3.60
2023-03-29T14:07:12.851Z,3.70
2023-03-29T14:17:10.968Z,3.90
2023-03-29T14:27:12.871Z,3.50
2023-03-29T14:37:11.138Z,3.10
2023-03-29T14:47:11.043Z,3.10
2023-03-29T14:57:11.114Z,2.60
2023-03-29T15:07:11.242Z,2.80
2023-03-29T15:17:11.312Z,3.10
2023-03-29T15:27:11.422Z,3.30
2023-03-29T15:37:11.571Z,3.70
2023-03-29T15:47:11.726Z,3.10
2023-03-29T15:57:11.753Z,3.20
2023-03-29T16:07:11.738Z,3.40
2023-03-29T16:17:11.695Z,3.10
2023-03-29T16:27:11.925Z,3.30
2023-03-29T16:37:11.925Z,3.60
2023-03-29T16:47:11.996Z,3.20
2023-03-29T16:57:11.898Z,3.70
2023-03-29T17:07:11.937Z,3.50
2023-03-29T17:17:11.905Z,3.30
2023-03-29T17:27:11.975Z,3.40
2023-03-29T17:37:12.295Z,3.70
2023-03-29T17:47:11.981Z,3.50
2023-03-29T17:57:12.086Z,3.70
2023-03-29T18:07:12.047Z,3.50
2023-03-29T18:17:12.461Z,3.70
2023-03-29T18:27:12.155Z,3.90
2023-03-29T18:37:12.171Z,3.60
2023-03-29T18:47:12.196Z,3.80
2023-03-29T18:57:13.804Z,3.80
2023-03-29T19:07:12.230Z,3.80
2023-03-29T19:17:12.268Z,3.70
2023-03-29T19:27:12.687Z,3.90
2023-03-29T19:37:12.733Z,3.70
2023-03-29T19:47:12.270Z,3.70
2023-03-29T19:57:12.252Z,3.50
2023-03-29T20:07:12.391Z,3.40
2023-03-29T20:17:12.203Z,3.40
2023-03-29T20:27:12.122Z,3.60
2023-03-29T20:37:12.120Z,3.60
2023-03-29T20:47:12.045Z,3.60
2023-03-29T20:57:12.035Z,3.70
2023-03-29T21:07:11.987Z,3.50
2023-03-29T21:17:11.965Z,3.40
2023-03-29T21:27:11.927Z,3.60
2023-03-29T21:37:14.007Z,3.40
2023-03-29T21:47:12.029Z,3.50
2023-03-29T21:57:12.020Z,3.10
2023-03-29T22:07:11.800Z,3.30
2023-03-29T22:17:11.942Z,3.20
2023-03-29T22:27:11.785Z,3.60
2023-03-29T22:37:11.918Z,3.20
2023-03-29T22:47:11.919Z,3.20
2023-03-29T22:57:11.757Z,3.30
2023-03-29T23:07:12.082Z,3.10
2023-03-29T23:17:11.708Z,3.20
2023-03-29T23:27:11.587Z,3.30
2023-03-29T23:37:11.488Z,3.00
2023-03-29T23:47:11.400Z,3.10
2023-03-29T23:57:11.353Z,2.70
